Latest Weather Observations for Murganella Airstrip

IDD60801

Issued at 12:31 pm CST Saturday 4 July 2015 (issued every 30 minutes, with the page automatically refreshed every 10 minutes)

About weather observations | Map of weather stations | Latest weather observations for NT | Other Formats
Station Details ID: 014309 Name: MURGANELLA AIRSTRIP Lat: -11.55 Lon: 132.93 Height: 9.5 m
Data from the previous 72 hours. | See also: Recent months for locations in Northern Territory
Date/Time
CST
Temp
°C
App
Temp
°C
Dew
Point
Rel
Hum
%
Delta-T
°C
Wind Press
QNH
hPa
Press
MSL
hPa
Rain
since 9 am
mm
Dir
 
Spd
km/h
Gust
km/h
Spd
kts
Gust
kts
04/12:30pm 28.2 25.5 11.7 36 9.5 E 17 28 9 15 1013.4 1013.4 0.0
04/12:00pm 28.1 25.3 11.2 35 9.7 E 17 26 9 14 1013.8 1013.8 0.0
04/11:30am 27.6 24.6 10.8 35 9.5 ESE 17 28 9 15 1014.3 1014.3 0.0
04/11:00am 27.8 24.8 10.5 34 9.8 E 17 32 9 17 1014.8 1014.8 0.0
04/10:30am 27.0 24.5 11.1 37 9.0 ESE 15 28 8 15 1015.3 1015.3 0.0
04/10:00am 26.2 24.1 12.3 42 8.0 ESE 15 30 8 16 1015.3 1015.3 0.0
04/09:30am 25.9 26.2 15.9 54 6.1 ESE 9 17 5 9 1015.5 1015.5 0.0
04/09:00am 23.6 25.4 18.7 74 3.1 ESE 7 15 4 8 1015.7 1015.7 0.0
04/08:30am 21.0 24.1 21.0 100 0.0 ESE 6 7 3 4 1015.5 1015.5 0.0
04/08:00am 18.2 20.3 18.2 100 0.0 SE 4 6 2 3 1015.2 1015.2 0.0
04/07:30am 14.1 15.4 14.1 100 0.0 CALM 0 0 0 0 1014.9 1014.9 0.0
04/07:00am 13.7 14.5 13.7 100 0.0 SSE 2 4 1 2 1014.7 1014.7 0.0
04/06:30am 14.2 14.8 14.2 100 0.0 SSE 4 6 2 3 1014.6 1014.6 0.0
04/06:00am 14.4 15.8 14.4 100 0.0 CALM 0 0 0 0 1014.5 1014.5 0.0
04/05:30am 15.0 16.6 15.0 100 0.0 CALM 0 2 0 1 1014.3 1014.3 0.0
04/05:00am 15.5 16.9 15.5 100 0.0 SE 2 4 1 2 1014.1 1014.1 0.0
04/04:30am 16.1 17.8 16.1 100 0.0 SSE 2 2 1 1 1014.1 1014.1 0.0
04/04:00am 16.8 19.1 16.8 100 0.0 CALM 0 0 0 0 1014.2 1014.2 0.0
04/03:30am 17.9 20.7 17.9 100 0.0 CALM 0 0 0 0 1014.1 1014.1 0.0
04/03:00am 19.1 21.6 19.1 100 0.0 SE 4 7 2 4 1014.2 1014.2 0.0
04/02:30am 20.2 23.1 19.9 98 0.2 SE 4 6 2 3 1014.4 1014.4 0.0
04/02:00am 21.7 24.8 21.5 99 0.1 E 7 13 4 7 1014.5 1014.5 0.0
04/01:30am 21.1 23.6 21.1 100 0.0 ESE 9 19 5 10 1014.6 1014.6 0.0
04/01:00am 17.5 19.3 17.5 100 0.0 SE 4 6 2 3 1014.6 1014.6 0.0
04/12:30am 17.3 19.8 17.3 100 0.0 CALM 0 2 0 1 1014.6 1014.6 0.0
04/12:00am 17.1 19.5 17.1 100 0.0 CALM 0 0 0 0 1014.5 1014.5 0.0
 
Date/Time
CST
Temp
°C
App
Temp
°C
Dew
Point
Rel
Hum
%
Delta-T
°C
Wind Press
QNH
hPa
Press
MSL
hPa
Rain
since 9 am
mm
Dir
 
Spd
km/h
Gust
km/h
Spd
kts
Gust
kts
03/11:30pm 17.3 19.8 17.3 100 0.0 CALM 0 0 0 0 1014.4 1014.4 0.0
03/11:00pm 17.6 20.2 17.6 100 0.0 CALM 0 0 0 0 1014.4 1014.4 0.0
03/10:30pm 18.0 20.8 18.0 100 0.0 CALM 0 0 0 0 1014.4 1014.4 0.0
03/10:00pm 18.3 21.2 18.3 100 0.0 CALM 0 0 0 0 1014.3 1014.3 0.0
03/09:30pm 18.8 22.0 18.8 100 0.0 CALM 0 0 0 0 1014.1 1014.1 0.0
03/09:00pm 19.2 22.5 19.0 99 0.1 CALM 0 0 0 0 1014.0 1014.0 0.0
03/08:30pm 19.9 23.3 19.4 97 0.3 CALM 0 0 0 0 1013.6 1013.6 0.0
03/08:00pm 20.7 23.9 18.8 89 1.2 CALM 0 0 0 0 1013.3 1013.3 0.0
03/07:30pm 21.7 24.9 18.9 84 1.8 CALM 0 0 0 0 1012.9 1012.9 0.0
03/07:00pm 22.9 25.9 18.4 76 2.8 CALM 0 0 0 0 1012.7 1012.7 0.0
03/06:30pm 24.4 27.2 18.8 71 3.6 NE 2 4 1 2 1012.5 1012.5 0.0
03/06:00pm 25.4 27.7 18.6 66 4.3 NE 4 7 2 4 1012.4 1012.4 0.0
03/05:30pm 26.9 28.8 18.5 60 5.4 NE 6 13 3 7 1012.2 1012.2 0.0
03/05:00pm 27.4 27.8 17.3 54 6.3 ENE 11 17 6 9 1012.0 1012.0 0.0
03/04:30pm 28.5 28.8 16.1 47 7.7 ENE 9 15 5 8 1011.9 1011.9 0.0
03/04:00pm 29.6 29.3 16.4 45 8.2 ENE 13 24 7 13 1012.0 1012.0 0.0
03/03:30pm 30.1 29.4 15.4 41 9.1 ENE 13 28 7 15 1012.2 1012.2 0.0
03/03:00pm 29.8 29.3 15.9 43 8.6 E 13 24 7 13 1012.4 1012.4 0.0
03/02:30pm 30.2 29.8 16.2 42 8.7 E 13 24 7 13 1012.7 1012.7 0.0
03/02:00pm 30.4 30.2 16.8 44 8.6 ENE 13 32 7 17 1013.3 1013.3 0.0
03/01:30pm 29.1 28.4 16.3 46 8.0 E 15 22 8 12 1013.8 1013.8 0.0
03/01:00pm 29.5 28.7 16.0 44 8.4 ENE 15 30 8 16 1014.4 1014.4 0.0
03/12:30pm 29.8 29.9 18.3 50 7.4 ENE 15 26 8 14 1014.8 1014.8 0.0
03/12:00pm 28.8 28.5 18.3 53 6.7 E 17 32 9 17 1015.1 1015.1 0.0
03/11:30am 28.2 27.1 17.4 52 6.8 ESE 19 33 10 18 1015.6 1015.6 0.0
03/11:00am 28.2 28.4 18.6 56 6.2 E 15 24 8 13 1016.0 1016.0 0.0
03/10:30am 27.5 27.5 19.0 59 5.5 ESE 17 32 9 17 1016.3 1016.3 0.0
03/10:00am 26.9 28.3 20.3 67 4.3 E 13 26 7 14 1016.4 1016.4 0.0
03/09:30am 26.5 28.6 21.0 72 3.6 ESE 11 22 6 12 1016.4 1016.4 0.0
03/09:00am 25.5 28.6 22.2 82 2.2 ESE 9 19 5 10 1016.3 1016.3 0.0
03/08:30am 23.5 27.6 23.3 99 0.1 ESE 7 11 4 6 1016.1 1016.1 0.0
03/08:00am 21.4 25.4 21.4 100 0.0 SE 2 6 1 3 1015.8 1015.8 0.0
03/07:30am 17.6 20.2 17.6 100 0.0 CALM 0 0 0 0 1015.5 1015.5 0.0
03/07:00am 17.1 19.5 17.1 100 0.0 CALM 0 0 0 0 1015.3 1015.3 0.0
03/06:30am 17.3 19.8 17.3 100 0.0 CALM 0 0 0 0 1015.1 1015.1 0.0
03/06:00am 17.5 20.1 17.5 100 0.0 CALM 0 0 0 0 1015.0 1015.0 0.0
03/05:30am 17.9 20.7 17.9 100 0.0 CALM 0 0 0 0 1014.7 1014.7 0.0
03/05:00am 18.4 21.0 18.4 100 0.0 SSE 2 4 1 2 1014.5 1014.5 0.0
03/04:30am 19.0 21.5 19.0 100 0.0 SE 4 4 2 2 1014.4 1014.4 0.0
03/04:00am 20.0 22.6 19.3 96 0.4 SE 4 6 2 3 1014.7 1014.7 0.0
03/03:30am 21.1 23.6 19.0 88 1.3 SE 4 4 2 2 1014.8 1014.8 0.0
03/03:00am 21.8 23.7 18.6 82 2.0 SE 6 7 3 4 1015.1 1015.1 0.0
03/02:30am 22.4 24.2 18.2 77 2.6 SE 6 11 3 6 1015.3 1015.3 0.0
03/02:00am 23.1 24.8 18.0 73 3.2 SE 6 9 3 5 1015.4 1015.4 0.0
03/01:30am 23.9 25.4 17.6 68 3.9 ESE 6 11 3 6 1015.4 1015.4 0.0
03/01:00am 24.7 26.1 17.9 66 4.3 ESE 7 11 4 6 1015.4 1015.4 0.0
03/12:30am 25.2 26.5 18.4 66 4.3 ESE 9 13 5 7 1015.5 1015.5 0.0
03/12:00am 25.4 27.1 19.3 69 3.9 ESE 9 20 5 11 1015.5 1015.5 0.0
 
Date/Time
CST
Temp
°C
App
Temp
°C
Dew
Point
Rel
Hum
%
Delta-T
°C
Wind Press
QNH
hPa
Press
MSL
hPa
Rain
since 9 am
mm
Dir
 
Spd
km/h
Gust
km/h
Spd
kts
Gust
kts
02/11:30pm 25.6 28.1 21.1 76 3.0 ESE 9 17 5 9 1015.5 1015.5 0.0
02/11:00pm 25.7 29.3 22.4 82 2.2 ESE 7 13 4 7 1015.7 1015.7 0.0
02/10:30pm 25.4 30.1 24.0 92 1.0 E 6 9 3 5 1015.8 1015.8 0.0
02/10:00pm 25.2 30.0 24.2 94 0.7 E 6 7 3 4 1015.8 1015.8 0.0
02/09:30pm 24.8 30.0 23.6 93 0.8 E 2 4 1 2 1015.6 1015.6 0.0
02/09:00pm 25.0 30.0 23.2 90 1.2 ENE 2 6 1 3 1015.4 1015.4 0.0
02/08:30pm 25.2 29.9 23.3 89 1.3 NE 4 7 2 4 1015.3 1015.3 0.0
02/08:00pm 25.4 30.1 23.3 88 1.4 ENE 4 6 2 3 1014.9 1014.9 0.0
02/07:30pm 25.3 29.7 22.8 86 1.7 ENE 4 6 2 3 1014.5 1014.5 0.0
02/07:00pm 25.8 29.5 22.3 81 2.3 ENE 6 13 3 7 1014.2 1014.2 0.0
02/06:30pm 26.4 29.4 21.2 73 3.4 NE 7 15 4 8 1013.9 1013.9 0.0
02/06:00pm 26.9 29.1 20.5 68 4.2 ENE 9 17 5 9 1013.7 1013.7 0.0
02/05:30pm 27.7 29.5 19.5 61 5.3 ENE 9 15 5 8 1013.5 1013.5 0.0
02/05:00pm 28.4 29.2 19.1 57 6.0 ENE 13 22 7 12 1013.3 1013.3 0.0
02/04:30pm 29.6 30.5 19.3 54 6.7 ENE 13 24 7 13 1013.2 1013.2 0.0
02/04:00pm 29.1 29.5 19.1 54 6.5 E 15 24 8 13 1013.3 1013.3 0.0
02/03:30pm 29.0 29.5 19.3 55 6.3 ENE 15 33 8 18 1013.4 1013.4 0.0
02/03:00pm 29.4 29.7 17.9 50 7.3 ENE 13 24 7 13 1013.6 1013.6 0.0
02/02:30pm 29.8 29.3 16.9 45 8.1 E 15 24 8 13 1013.8 1013.8 0.0
02/02:00pm 30.1 28.8 16.9 45 8.3 E 19 32 10 17 1014.2 1014.2 0.0
02/01:30pm 30.8 30.3 16.8 43 8.8 E 15 28 8 15 1014.7 1014.7 0.0
02/01:00pm 30.4 29.4 15.7 41 9.1 E 15 26 8 14 1015.2 1015.2 0.0
02/12:30pm 30.5 29.7 16.1 41 9.0 E 15 32 8 17 1015.6 1015.6 0.0
02/12:00pm 30.5 29.6 15.8 41 9.1 E 15 26 8 14 1015.9 1015.9 0.0
02/11:30am 29.9 28.5 15.6 42 8.8 E 17 30 9 16 1016.4 1016.4 0.0
02/11:00am 27.5 28.5 16.8 52 6.7 ESE 7 15 4 8 1016.9 1016.9 0.0
02/10:30am 27.9 26.9 16.5 50 7.1 E 17 30 9 16 1017.1 1017.1 0.0
02/10:00am 27.8 28.4 17.6 53 6.4 ESE 11 20 6 11 1017.3 1017.3 0.0
02/09:30am 25.9 26.2 17.8 61 5.1 ESE 13 24 7 13 1017.4 1017.4 0.0
02/09:00am 24.5 27.6 21.4 83 2.0 ESE 7 11 4 6 1017.2 1017.2 0.0
02/08:30am 23.4 27.3 22.6 95 0.5 SE 6 9 3 5 1017.0 1017.0 0.0
02/08:00am 22.4 26.6 22.4 100 0.0 SSE 4 7 2 4 1016.7 1016.7 0.0
02/07:30am 21.7 25.5 21.7 100 0.0 SE 4 4 2 2 1016.5 1016.5 0.0
02/07:00am 21.5 25.2 21.5 100 0.0 SSE 4 6 2 3 1016.1 1016.1 0.0
02/06:30am 21.7 25.9 21.7 100 0.0 SE 2 4 1 2 1016.0 1016.0 0.0
02/06:00am 21.9 25.4 21.9 100 0.0 SSE 6 7 3 4 1015.9 1015.9 0.0
02/05:30am 22.2 26.3 22.2 100 0.0 SE 4 7 2 4 1015.7 1015.7 0.0
02/05:00am 22.3 25.9 22.3 100 0.0 SE 7 9 4 5 1015.5 1015.5 0.0
02/04:30am 22.9 26.8 22.9 100 0.0 SE 7 15 4 8 1015.4 1015.4 0.0
02/04:00am 23.0 26.6 23.0 100 0.0 SE 9 17 5 9 1015.4 1015.4 0.0
02/03:30am 23.1 26.7 23.1 100 0.0 SE 9 17 5 9 1015.4 1015.4 0.0
02/03:00am 23.2 26.9 23.2 100 0.0 SE 9 17 5 9 1015.5 1015.5 0.0
02/02:30am 23.5 27.3 23.5 100 0.0 ESE 9 19 5 10 1015.9 1015.9 0.0
02/02:00am 23.5 27.3 23.5 100 0.0 ESE 9 17 5 9 1016.2 1016.2 0.0
02/01:30am 23.4 27.2 23.4 100 0.0 SE 9 17 5 9 1016.3 1016.3 0.0
02/01:00am 23.3 27.0 23.3 100 0.0 ESE 9 17 5 9 1016.5 1016.5 0.0
02/12:30am 23.1 27.3 23.1 100 0.0 ESE 6 11 3 6 1016.7 1016.7 0.0
02/12:00am 23.3 26.7 23.3 100 0.0 SE 11 20 6 11 1016.9 1016.9 0.0
 
Date/Time
CST
Temp
°C
App
Temp
°C
Dew
Point
Rel
Hum
%
Delta-T
°C
Wind Press
QNH
hPa
Press
MSL
hPa
Rain
since 9 am
mm
Dir
 
Spd
km/h
Gust
km/h
Spd
kts
Gust
kts
01/11:30pm 23.2 26.5 23.2 100 0.0 SE 11 28 6 15 1016.9 1016.9 0.0
01/11:00pm 23.2 26.5 23.2 100 0.0 SE 11 20 6 11 1017.1 1017.1 0.0
01/10:30pm 23.1 26.3 23.1 100 0.0 SE 11 22 6 12 1017.1 1017.1 0.0
01/10:00pm 23.3 25.9 23.3 100 0.0 SE 15 24 8 13 1017.1 1017.1 0.0
01/09:30pm 23.5 26.8 23.2 98 0.2 SE 11 22 6 12 1016.8 1016.8 0.0
01/09:00pm 23.7 26.3 22.7 94 0.7 SE 13 24 7 13 1016.6 1016.6 0.0
01/08:30pm 24.0 26.2 21.9 88 1.4 SE 13 22 7 12 1016.4 1016.4 0.0
01/08:00pm 24.5 25.9 20.4 78 2.7 SE 13 28 7 15 1016.0 1016.0 0.0
01/07:30pm 25.1 25.9 19.9 73 3.4 SE 15 32 8 17 1015.6 1015.6 0.0
01/07:00pm 26.1 26.1 19.7 68 4.1 SE 19 30 10 16 1014.9 1014.9 0.0
01/06:30pm 27.2 28.4 19.8 64 4.8 SE 13 24 7 13 1014.3 1014.3 0.0
01/06:00pm 27.6 30.2 21.2 68 4.3 E 9 19 5 10 1014.0 1014.0 0.0
01/05:30pm 28.7 30.8 20.2 60 5.6 E 9 19 5 10 1013.8 1013.8 0.0
01/05:00pm 29.9 32.1 20.5 57 6.2 ENE 9 15 5 8 1013.4 1013.4 0.0
01/04:30pm 28.9 30.8 19.8 58 6.0 ENE 9 17 5 9 1013.3 1013.3 0.0
01/04:00pm 30.4 32.0 20.0 53 6.8 E 11 20 6 11 1013.2 1013.2 0.0
01/03:30pm 30.6 32.5 20.5 54 6.7 E 11 19 6 10 1013.5 1013.5 0.0
01/03:00pm 30.2 32.0 20.4 55 6.5 ENE 11 19 6 10 1013.7 1013.7 0.0
01/02:30pm 30.4 31.6 20.0 53 6.8 ENE 13 20 7 11 1013.9 1013.9 0.0
01/02:00pm 29.6 31.6 19.9 56 6.4 E 9 17 5 9 1014.3 1014.3 0.0
01/01:30pm 30.4 31.7 19.4 51 7.2 E 11 20 6 11 1014.8 1014.8 0.0
01/01:00pm 31.1 32.4 19.4 49 7.7 SE 11 20 6 11 1015.3 1015.3 0.0

Other Formats:

Comma delimited format used in spreadsheet applications
http://www.bom.gov.au/fwo/IDD60801/IDD60801.94109.axf

JavaScript Object Notation format (JSON) in row-major order
http://www.bom.gov.au/fwo/IDD60801/IDD60801.94109.json